Mountain View, CA

4:39 AM PST on December 10, 2016 (GMT -0800)
Moffett Federal Air Field | | Change Station

Elev 39 ft 37.41 °N, 122.05 °W | Updated 43 minutes ago

Overcast
Overcast
60 °F
Feels Like 60 °F
N
6
Wind Variable Wind from SSE

Today
High -- | Low -- °F
--% Chance of Precip.
Yesterday
High -- | Low -- °F
Precip. -- in
Pressure 30.14 in
Visibility 9.0 miles
Clouds Few 1600 ft
Mostly Cloudy 2500 ft
Overcast 4000 ft
Dew Point 57 °F
Humidity 90%
Rainfall 0.03 in
Snow Depth Not available.
7:12 AM 4:50 PM
Waxing Gibbous, 83% visible
METAR KNUQ 101156Z 15005KT 9SM -RA FEW016 BKN025 OVC040 16/14 A3014 RMK AO2 RAB04 SLP207 P0001 60003 70003 T01560139 10172 20156 50001
Pressure 30.14 in
Visibility 9.0 miles
Clouds Few 1600 ft
Mostly Cloudy 2500 ft
Overcast 4000 ft
Dew Point 57 °F
Humidity 90%
Rainfall 0.03 in
Snow Depth Not available.
7:12 AM 4:50 PM
Waxing Gibbous, 83% visible
METAR KNUQ 101156Z 15005KT 9SM -RA FEW016 BKN025 OVC040 16/14 A3014 RMK AO2 RAB04 SLP207 P0001 60003 70003 T01560139 10172 20156 50001

10-Day Weather Forecast

Almanac

Astronomy

Dec. 10, 2016 Rise Set
Actual Time
Civil Twilight
Nautical Twilight
Astronomical Twilight
Moon
Length of Visible Light
Length of Day
Tomorrow will be .
, % of the Moon is Illuminated

Today's Extremes

State Highs State Lows

Community

WunderPhotos

Upload Photos

1,956,540 photos uploaded!

WunderBlog® & News

Nearby

Air Quality

  Air Quality AQ Index Pollutant
Not available.

Snow Depth

Station Depth Elevation

Earthquake Activity

City Distance Mag. Time & Date
Minimum magnitude displayed is 2.5.

Coastal Water Temperatures

Place Temperature

Stations

Nearby Weather Stations

Station Location Temp. Windchill Dew Point Humidity Wind Precip. Elev Updated Type
                   

Watches & Warnings

There are currently no watches in effect.